createdAt,value
2023-01-30T00:01:44.798Z,100544.31
2023-01-30T00:04:16.084Z,100540.00
2023-01-30T00:06:45.998Z,100526.78
2023-01-30T00:09:15.117Z,100523.31
2023-01-30T00:11:43.039Z,100507.44
2023-01-30T00:14:10.720Z,100509.09
2023-01-30T00:16:38.469Z,100510.28
2023-01-30T00:19:07.153Z,100504.97
2023-01-30T00:21:34.998Z,100498.72
2023-01-30T00:24:04.111Z,100487.31
2023-01-30T00:26:31.807Z,100488.94
2023-01-30T00:28:59.442Z,100458.84
2023-01-30T00:31:27.173Z,100476.38
2023-01-30T00:33:55.148Z,100463.16
2023-01-30T00:36:22.754Z,100457.03
2023-01-30T00:38:50.332Z,100457.38
2023-01-30T00:41:19.250Z,100452.59
2023-01-30T00:44:04.560Z,100444.81
2023-01-30T00:46:52.198Z,100452.59
2023-01-30T00:49:20.707Z,100456.69
2023-01-30T00:51:48.461Z,100435.34
2023-01-30T00:54:16.168Z,100436.19
2023-01-30T00:56:45.220Z,100426.28
2023-01-30T00:59:12.804Z,100443.44
2023-01-30T01:01:40.729Z,100428.88
2023-01-30T01:04:10.490Z,100402.94
2023-01-30T01:06:38.357Z,100408.56
2023-01-30T01:09:06.885Z,100386.38
2023-01-30T01:11:34.533Z,100389.03
2023-01-30T01:14:05.763Z,100378.91
2023-01-30T01:16:34.985Z,100396.94
2023-01-30T01:19:03.668Z,100379.22
2023-01-30T01:21:31.381Z,100380.03
2023-01-30T01:24:00.656Z,100369.78
2023-01-30T01:26:28.731Z,100377.06
2023-01-30T01:28:56.929Z,100357.53
2023-01-30T01:31:26.658Z,100366.31
2023-01-30T01:33:54.366Z,100362.47
2023-01-30T01:36:51.534Z,100337.84
2023-01-30T01:39:10.142Z,100348.28
2023-01-30T01:41:36.799Z,100348.06
2023-01-30T01:44:07.281Z,100344.44
2023-01-30T01:46:39.660Z,100351.34
2023-01-30T01:49:13.709Z,100353.69
2023-01-30T01:51:47.431Z,100340.94
2023-01-30T01:54:19.656Z,100361.13
2023-01-30T01:56:50.727Z,100376.47
2023-01-30T01:59:23.714Z,100359.59
2023-01-30T02:01:56.942Z,100365.53
2023-01-30T02:04:40.300Z,100431.97
2023-01-30T02:07:09.616Z,100399.50
2023-01-30T02:09:37.850Z,100395.09
2023-01-30T02:12:06.888Z,100399.09
2023-01-30T02:14:35.351Z,100392.84
2023-01-30T02:17:04.336Z,100373.19
2023-01-30T02:19:40.314Z,100384.94
2023-01-30T02:22:36.560Z,100371.41
2023-01-30T02:25:46.910Z,100361.66
2023-01-30T02:28:37.820Z,100374.84
2023-01-30T02:31:18.829Z,100372.91
2023-01-30T02:33:57.203Z,100375.53
2023-01-30T02:36:33.965Z,100377.34
2023-01-30T02:39:08.809Z,100364.13
2023-01-30T02:41:44.809Z,100371.22
2023-01-30T02:44:19.060Z,100388.56
2023-01-30T02:46:54.666Z,100379.00
2023-01-30T02:49:27.535Z,100359.69
2023-01-30T02:51:57.731Z,100352.56
2023-01-30T02:54:25.317Z,100348.91
2023-01-30T02:56:54.568Z,100357.88
2023-01-30T02:59:25.399Z,100358.50
2023-01-30T03:02:24.115Z,100360.31
2023-01-30T03:05:31.069Z,100358.84
2023-01-30T03:08:08.542Z,100346.13
2023-01-30T03:10:39.426Z,100323.38
2023-01-30T03:13:13.575Z,100317.13
2023-01-30T03:15:46.047Z,100343.06
2023-01-30T03:18:15.443Z,100367.50
2023-01-30T03:20:43.093Z,100369.50
2023-01-30T03:23:11.160Z,100364.38
2023-01-30T03:25:42.296Z,100346.72
2023-01-30T03:28:11.933Z,100342.09
2023-01-30T03:30:39.563Z,100335.31
2023-01-30T03:33:07.231Z,100330.91
2023-01-30T03:35:36.613Z,100316.56
2023-01-30T03:38:04.225Z,100313.75
2023-01-30T03:40:31.890Z,100324.81
2023-01-30T03:42:59.534Z,100327.28
2023-01-30T03:45:27.170Z,100335.72
2023-01-30T03:47:54.901Z,100336.56
2023-01-30T03:50:22.535Z,100342.97
2023-01-30T03:52:51.563Z,100330.28
2023-01-30T03:55:19.663Z,100350.75
2023-01-30T03:57:47.692Z,100361.97
2023-01-30T04:00:16.496Z,100357.03
2023-01-30T04:02:44.440Z,100349.59
2023-01-30T04:05:12.091Z,100358.47
2023-01-30T04:07:39.700Z,100350.88
2023-01-30T04:10:09.870Z,100346.78
2023-01-30T04:12:37.496Z,100338.53
2023-01-30T04:15:05.722Z,100338.03
2023-01-30T04:17:33.377Z,100331.91
2023-01-30T04:20:01.044Z,100342.81
2023-01-30T04:22:28.678Z,100339.50
2023-01-30T04:24:56.265Z,100331.09
2023-01-30T04:27:25.240Z,100322.53
2023-01-30T04:29:52.894Z,100326.16
2023-01-30T04:32:20.521Z,100333.22
2023-01-30T04:34:48.199Z,100329.78
2023-01-30T04:37:15.772Z,100315.78
2023-01-30T04:39:43.482Z,100321.03
2023-01-30T04:42:11.086Z,100312.13
2023-01-30T04:44:40.155Z,100312.97
2023-01-30T04:47:07.972Z,100322.34
2023-01-30T04:49:35.593Z,100320.53
2023-01-30T04:52:03.190Z,100315.13
2023-01-30T04:54:30.922Z,100325.34
2023-01-30T04:56:58.680Z,100315.94
2023-01-30T04:59:26.425Z,100316.25
2023-01-30T05:01:55.827Z,100315.94
2023-01-30T05:04:23.426Z,100300.44
2023-01-30T05:06:51.077Z,100314.94
2023-01-30T05:09:18.904Z,100321.06
2023-01-30T05:11:46.551Z,100312.16
2023-01-30T05:14:14.367Z,100310.66
2023-01-30T05:16:41.987Z,100310.66
2023-01-30T05:19:13.835Z,100300.78
2023-01-30T05:21:41.582Z,100305.22
2023-01-30T05:24:09.553Z,100307.69
2023-01-30T05:26:37.408Z,100299.94
2023-01-30T05:29:05.070Z,100296.00
2023-01-30T05:31:32.653Z,100285.09
2023-01-30T05:34:00.242Z,100292.69
2023-01-30T05:36:29.228Z,100300.28
2023-01-30T05:38:56.824Z,100299.44
2023-01-30T05:41:24.457Z,100300.44
2023-01-30T05:43:52.507Z,100290.19
2023-01-30T05:46:20.608Z,100305.88
2023-01-30T05:48:48.373Z,100308.00
2023-01-30T05:51:18.825Z,100297.31
2023-01-30T05:53:48.357Z,100302.91
2023-01-30T05:56:17.007Z,100288.38
2023-01-30T05:58:45.160Z,100291.47
2023-01-30T06:01:14.081Z,100290.31
2023-01-30T06:03:41.820Z,100282.25
2023-01-30T06:06:09.554Z,100276.00
2023-01-30T06:08:37.218Z,100281.09
2023-01-30T06:11:08.424Z,100278.28
2023-01-30T06:13:36.157Z,100268.72
2023-01-30T06:16:04.690Z,100259.13
2023-01-30T06:18:32.570Z,100265.88
2023-01-30T06:21:00.239Z,100263.09
2023-01-30T06:23:28.985Z,100254.84
2023-01-30T06:25:56.685Z,100249.03
2023-01-30T06:28:26.618Z,100258.59
2023-01-30T06:30:55.256Z,100256.47
2023-01-30T06:33:22.909Z,100251.47
2023-01-30T06:35:52.617Z,100261.53
2023-01-30T06:38:21.316Z,100260.53
2023-01-30T06:40:50.674Z,100268.47
2023-01-30T06:43:18.846Z,100256.91
2023-01-30T06:45:47.821Z,100256.75
2023-01-30T06:48:15.538Z,100250.63
2023-01-30T06:50:43.319Z,100263.19
2023-01-30T06:53:11.959Z,100252.44
2023-01-30T06:55:39.614Z,100251.59
2023-01-30T06:58:09.000Z,100249.63
2023-01-30T07:00:39.489Z,100252.91
2023-01-30T07:03:11.876Z,100267.22
2023-01-30T07:05:40.190Z,100258.66
2023-01-30T07:08:08.013Z,100259.16
2023-01-30T07:10:36.000Z,100262.44
2023-01-30T07:13:03.684Z,100264.09
2023-01-30T07:15:32.187Z,100262.44
2023-01-30T07:18:00.295Z,100250.22
2023-01-30T07:20:30.191Z,100261.78
2023-01-30T07:22:57.980Z,100260.44
2023-01-30T07:25:27.696Z,100263.41
2023-01-30T07:27:57.824Z,100244.84
2023-01-30T07:30:26.163Z,100247.44
2023-01-30T07:32:54.534Z,100245.56
2023-01-30T07:35:23.215Z,100244.72
2023-01-30T07:37:52.821Z,100244.03
2023-01-30T07:40:21.547Z,100247.88
2023-01-30T07:42:57.666Z,100247.38
2023-01-30T07:45:25.403Z,100242.63
2023-01-30T07:47:53.289Z,100242.16
2023-01-30T07:50:21.038Z,100241.88
2023-01-30T07:52:48.830Z,100245.34
2023-01-30T07:55:18.176Z,100239.44
2023-01-30T07:57:45.976Z,100264.53
2023-01-30T08:00:14.763Z,100269.69
2023-01-30T08:02:42.416Z,100272.88
2023-01-30T08:05:10.598Z,100263.97
2023-01-30T08:07:38.233Z,100267.63
2023-01-30T08:10:06.737Z,100270.78
2023-01-30T08:12:35.698Z,100278.00
2023-01-30T08:15:03.285Z,100239.06
2023-01-30T08:17:30.907Z,100288.59
2023-01-30T08:19:58.700Z,100294.50
2023-01-30T08:22:26.533Z,100304.66
2023-01-30T08:24:54.091Z,100296.41
2023-01-30T08:27:21.848Z,100324.50
2023-01-30T08:29:50.827Z,100324.50
2023-01-30T08:32:18.406Z,100291.94
2023-01-30T08:34:46.046Z,100291.78
2023-01-30T08:37:13.995Z,100293.94
2023-01-30T08:39:41.592Z,100287.03
2023-01-30T08:42:09.201Z,100273.56
2023-01-30T08:44:36.830Z,100274.72
2023-01-30T08:47:05.960Z,100268.34
2023-01-30T08:49:33.567Z,100267.38
2023-01-30T08:52:01.163Z,100266.41
2023-01-30T08:54:28.940Z,100265.28
2023-01-30T08:56:56.625Z,100263.00
2023-01-30T08:59:24.281Z,100244.88
2023-01-30T09:01:51.838Z,100257.91
2023-01-30T09:04:21.168Z,100244.22
2023-01-30T09:06:48.758Z,100254.41
2023-01-30T09:09:16.362Z,100243.22
2023-01-30T09:11:43.984Z,100236.28
2023-01-30T09:14:11.571Z,100227.50
2023-01-30T09:16:39.133Z,100244.19
2023-01-30T09:19:06.815Z,100236.88
2023-01-30T09:21:35.794Z,100227.25
2023-01-30T09:24:03.432Z,100228.84
2023-01-30T09:26:31.148Z,100214.25
2023-01-30T09:28:58.917Z,100218.06
2023-01-30T09:31:26.674Z,100192.00
2023-01-30T09:33:54.293Z,100199.97
2023-01-30T09:36:21.896Z,100198.22
2023-01-30T09:38:50.873Z,100204.97
2023-01-30T09:41:47.518Z,100187.94
2023-01-30T09:44:58.481Z,100207.56
2023-01-30T09:47:36.031Z,100260.28
2023-01-30T09:50:20.444Z,100236.28
2023-01-30T09:52:57.288Z,100233.78
2023-01-30T09:55:29.213Z,100180.53
2023-01-30T09:57:59.593Z,100235.19
2023-01-30T10:00:34.307Z,100256.38
2023-01-30T10:03:07.815Z,100252.75
2023-01-30T10:05:41.498Z,100247.50
2023-01-30T10:08:38.148Z,100242.97
2023-01-30T10:11:17.044Z,100235.13
2023-01-30T10:14:05.492Z,100244.53
2023-01-30T10:16:39.034Z,100234.47
2023-01-30T10:19:35.199Z,100223.41
2023-01-30T10:22:16.299Z,100215.00
2023-01-30T10:24:56.932Z,100220.56
2023-01-30T10:27:29.970Z,100212.28
2023-01-30T10:30:01.240Z,100217.72
2023-01-30T10:32:33.175Z,100212.78
2023-01-30T10:35:06.799Z,100222.66
2023-01-30T10:37:39.510Z,100228.47
2023-01-30T10:40:19.167Z,100228.50
2023-01-30T10:42:56.352Z,100248.97
2023-01-30T10:45:32.742Z,100242.53
2023-01-30T10:48:13.575Z,100239.72
2023-01-30T10:50:51.554Z,100238.41
2023-01-30T10:53:27.197Z,100244.19
2023-01-30T10:56:01.588Z,100249.13
2023-01-30T10:58:39.306Z,100242.06
2023-01-30T11:01:13.083Z,100234.97
2023-01-30T11:03:47.704Z,100222.06
2023-01-30T11:06:18.622Z,100219.03
2023-01-30T11:08:46.874Z,100230.19
2023-01-30T11:11:32.079Z,100222.75
2023-01-30T11:14:05.550Z,100223.72
2023-01-30T11:16:43.184Z,100216.81
2023-01-30T11:19:21.605Z,100232.19
2023-01-30T11:21:51.854Z,100227.88
2023-01-30T11:24:21.144Z,100222.06
2023-01-30T11:26:49.430Z,100225.38
2023-01-30T11:29:26.987Z,100221.56
2023-01-30T11:31:55.340Z,100238.81
2023-01-30T11:34:25.445Z,100229.81
2023-01-30T11:36:53.415Z,100233.81
2023-01-30T11:39:24.441Z,100231.69
2023-01-30T11:42:04.662Z,100237.47
2023-01-30T11:44:35.520Z,100239.97
2023-01-30T11:47:07.879Z,100246.69
2023-01-30T11:49:47.473Z,100245.56
2023-01-30T11:52:28.462Z,100241.09
2023-01-30T11:55:03.231Z,100237.28
2023-01-30T11:57:30.988Z,100244.53
2023-01-30T12:00:02.225Z,100236.34
2023-01-30T12:02:33.504Z,100231.22
2023-01-30T12:05:03.929Z,100243.75
2023-01-30T12:07:34.330Z,100230.16
2023-01-30T12:10:02.203Z,100244.16
2023-01-30T12:12:35.754Z,100219.69
2023-01-30T12:15:20.009Z,100222.03
2023-01-30T12:17:53.614Z,100235.38
2023-01-30T12:20:29.423Z,100234.50
2023-01-30T12:23:08.935Z,100226.31
2023-01-30T12:25:42.561Z,100239.66
2023-01-30T12:28:19.753Z,100209.03
2023-01-30T12:30:52.714Z,100201.31
2023-01-30T12:33:20.429Z,100213.97
2023-01-30T12:35:56.729Z,100225.53
2023-01-30T12:38:39.096Z,100247.75
2023-01-30T12:41:23.935Z,100248.78
2023-01-30T12:44:07.559Z,100257.31
2023-01-30T12:46:47.309Z,100255.59
2023-01-30T12:49:33.308Z,100246.41
2023-01-30T12:52:19.860Z,100268.19
2023-01-30T12:54:55.596Z,100273.13
2023-01-30T12:57:33.825Z,100278.31
2023-01-30T13:00:17.872Z,100261.66
2023-01-30T13:02:58.958Z,100250.22
2023-01-30T13:05:38.439Z,100270.84
2023-01-30T13:08:33.462Z,100273.81
2023-01-30T13:11:09.337Z,100287.84
2023-01-30T13:13:43.747Z,100296.13
2023-01-30T13:16:16.945Z,100309.69
2023-01-30T13:18:52.980Z,100312.84
2023-01-30T13:21:25.703Z,100312.50
2023-01-30T13:24:05.516Z,100319.78
2023-01-30T13:26:36.760Z,100334.00
2023-01-30T13:29:10.801Z,100326.25
2023-01-30T13:31:43.378Z,100331.53
2023-01-30T13:34:19.816Z,100338.88
2023-01-30T13:36:52.306Z,100353.91
2023-01-30T13:39:28.372Z,100355.56
2023-01-30T13:42:01.244Z,100355.31
2023-01-30T13:44:32.246Z,100317.84
2023-01-30T13:47:21.389Z,100347.94
2023-01-30T13:49:59.351Z,100371.75
2023-01-30T13:52:33.766Z,100384.00
2023-01-30T13:55:08.180Z,100363.81
2023-01-30T13:57:48.047Z,100376.91
2023-01-30T14:00:30.239Z,100376.00
2023-01-30T14:03:30.522Z,100403.16
2023-01-30T14:06:14.340Z,100361.00
2023-01-30T14:08:51.667Z,100398.06
2023-01-30T14:11:35.436Z,100431.91
2023-01-30T14:14:07.397Z,100410.47
2023-01-30T14:16:43.546Z,100425.50
2023-01-30T14:19:29.141Z,100457.09
2023-01-30T14:22:00.571Z,100470.44
2023-01-30T14:24:31.373Z,100479.25
2023-01-30T14:27:24.649Z,100484.53
2023-01-30T14:29:56.669Z,100508.16
2023-01-30T14:32:54.178Z,100498.88
2023-01-30T14:35:29.664Z,100516.38
2023-01-30T14:38:14.128Z,100534.59
2023-01-30T14:41:03.957Z,100529.47
2023-01-30T14:43:52.321Z,100538.13
2023-01-30T14:46:54.695Z,100538.44
2023-01-30T14:49:29.418Z,100562.94
2023-01-30T14:51:57.238Z,100552.50
2023-01-30T14:54:41.185Z,100567.25
2023-01-30T14:57:21.183Z,100571.06
2023-01-30T15:00:13.117Z,100580.97
2023-01-30T15:02:44.315Z,100590.22
2023-01-30T15:05:16.066Z,100544.25
2023-01-30T15:07:46.950Z,100578.31
2023-01-30T15:10:33.957Z,100600.31
2023-01-30T15:13:22.688Z,100598.97
2023-01-30T15:16:01.634Z,100614.84
2023-01-30T15:18:44.193Z,100608.59
2023-01-30T15:21:37.383Z,100619.84
2023-01-30T15:24:32.493Z,100629.75
2023-01-30T15:27:08.174Z,100624.97
2023-01-30T15:30:08.283Z,100651.91
2023-01-30T15:32:36.089Z,100647.09
2023-01-30T15:35:22.581Z,100664.66
2023-01-30T15:37:51.994Z,100673.88
2023-01-30T15:40:22.444Z,100673.75
2023-01-30T15:42:56.410Z,100692.59
2023-01-30T15:45:37.692Z,100690.41
2023-01-30T15:48:21.614Z,100702.66
2023-01-30T15:50:51.855Z,100698.88
2023-01-30T15:53:27.342Z,100705.63
2023-01-30T15:55:55.818Z,100690.44
2023-01-30T15:58:25.669Z,100726.28
2023-01-30T16:00:56.211Z,100734.38
2023-01-30T16:03:27.039Z,100743.81
2023-01-30T16:05:56.732Z,100735.53
2023-01-30T16:08:26.709Z,100759.31
2023-01-30T16:10:54.538Z,100773.72
2023-01-30T16:13:25.177Z,100828.72
2023-01-30T16:15:59.251Z,100796.34
2023-01-30T16:18:33.556Z,100793.03
2023-01-30T16:21:04.495Z,100810.00
2023-01-30T16:23:36.329Z,100825.06
2023-01-30T16:26:05.703Z,100795.78
2023-01-30T16:28:35.022Z,100830.16
2023-01-30T16:31:05.966Z,100840.88
2023-01-30T16:33:37.036Z,100861.50
2023-01-30T16:36:05.830Z,100867.63
2023-01-30T16:38:40.555Z,100883.97
2023-01-30T16:41:29.674Z,100903.09
2023-01-30T16:44:19.395Z,100905.00
2023-01-30T16:46:50.065Z,100882.63
2023-01-30T16:49:24.173Z,100917.72
2023-01-30T16:52:01.775Z,100912.94
2023-01-30T16:54:32.047Z,100907.94
2023-01-30T16:57:02.154Z,100911.88
2023-01-30T16:59:33.938Z,100930.00
2023-01-30T17:02:05.308Z,100932.78
2023-01-30T17:04:35.734Z,100923.66
2023-01-30T17:07:05.197Z,100941.59
2023-01-30T17:09:42.943Z,100958.75
2023-01-30T17:12:37.177Z,100972.69
2023-01-30T17:15:35.298Z,100981.19
2023-01-30T17:18:03.229Z,100975.25
2023-01-30T17:20:41.381Z,100982.50
2023-01-30T17:23:10.699Z,100989.03
2023-01-30T17:25:42.104Z,100980.81
2023-01-30T17:28:16.759Z,100986.78
2023-01-30T17:30:45.872Z,100999.84
2023-01-30T17:33:13.462Z,100996.13
2023-01-30T17:35:41.379Z,100982.78
2023-01-30T17:38:10.223Z,100986.09
2023-01-30T17:40:38.973Z,100987.06
2023-01-30T17:43:06.871Z,100993.19
2023-01-30T17:45:34.879Z,101000.28
2023-01-30T17:48:03.902Z,101015.13
2023-01-30T17:50:32.386Z,100995.69
2023-01-30T17:53:00.201Z,101012.34
2023-01-30T17:55:27.839Z,101033.03
2023-01-30T17:57:56.427Z,101046.06
2023-01-30T18:00:24.378Z,101042.31
2023-01-30T18:02:53.062Z,101025.34
2023-01-30T18:05:23.053Z,101061.16
2023-01-30T18:07:51.058Z,101042.16
2023-01-30T18:10:20.902Z,101077.72
2023-01-30T18:12:48.643Z,101019.94
2023-01-30T18:15:17.048Z,101068.59
2023-01-30T18:17:47.568Z,101045.00
2023-01-30T18:20:18.138Z,101057.19
2023-01-30T18:22:47.963Z,101070.69
2023-01-30T18:25:17.413Z,101077.09
2023-01-30T18:27:47.905Z,101081.69
2023-01-30T18:30:18.095Z,101103.41
2023-01-30T18:32:52.935Z,101079.53
2023-01-30T18:35:21.813Z,101126.69
2023-01-30T18:37:50.979Z,101124.19
2023-01-30T18:40:19.673Z,101126.81
2023-01-30T18:42:47.638Z,101140.56
2023-01-30T18:45:15.600Z,101136.63
2023-01-30T18:47:43.395Z,101133.31
2023-01-30T18:50:12.241Z,101126.00
2023-01-30T18:52:39.893Z,101136.00
2023-01-30T18:55:09.529Z,101147.00
2023-01-30T18:57:37.233Z,101148.66
2023-01-30T19:00:05.862Z,101145.50
2023-01-30T19:02:33.575Z,101166.72
2023-01-30T19:05:01.230Z,101151.06
2023-01-30T19:07:28.789Z,101156.75
2023-01-30T19:09:56.440Z,101158.16
2023-01-30T19:12:43.355Z,101173.44
2023-01-30T19:15:11.479Z,101173.16
2023-01-30T19:17:39.102Z,101165.25
2023-01-30T19:20:11.112Z,101192.63
2023-01-30T19:22:38.860Z,101191.09
2023-01-30T19:25:07.562Z,101172.22
2023-01-30T19:27:38.419Z,101186.38
2023-01-30T19:30:07.414Z,101193.47
2023-01-30T19:32:35.396Z,101184.56
2023-01-30T19:35:03.125Z,101177.22
2023-01-30T19:37:30.893Z,101184.19
2023-01-30T19:39:58.483Z,101175.44
2023-01-30T19:42:26.249Z,101185.00
2023-01-30T19:44:55.224Z,101192.94
2023-01-30T19:47:23.348Z,101185.00
2023-01-30T19:49:51.116Z,101197.91
2023-01-30T19:52:18.759Z,101214.88
2023-01-30T19:54:47.679Z,101209.72
2023-01-30T19:57:15.258Z,101228.72
2023-01-30T19:59:43.429Z,101228.84
2023-01-30T20:02:12.769Z,101245.38
2023-01-30T20:04:40.685Z,101247.19
2023-01-30T20:07:08.335Z,101245.50
2023-01-30T20:09:35.922Z,101245.78
2023-01-30T20:12:03.646Z,101238.03
2023-01-30T20:14:31.279Z,101239.84
2023-01-30T20:16:58.936Z,101231.78
2023-01-30T20:19:28.163Z,101259.13
2023-01-30T20:21:56.063Z,101271.50
2023-01-30T20:24:23.696Z,101269.41
2023-01-30T20:26:51.303Z,101274.41
2023-01-30T20:29:19.012Z,101273.69
2023-01-30T20:31:46.791Z,101263.31
2023-01-30T20:34:15.678Z,101287.31
2023-01-30T20:36:44.730Z,101287.72
2023-01-30T20:39:12.817Z,101289.09
2023-01-30T20:41:40.687Z,101293.28
2023-01-30T20:44:10.557Z,101296.47
2023-01-30T20:46:41.419Z,101295.06
2023-01-30T20:49:13.364Z,101292.03
2023-01-30T20:51:41.760Z,101292.03
2023-01-30T20:54:13.618Z,101295.91
2023-01-30T20:56:42.927Z,101297.97
2023-01-30T20:59:12.396Z,101305.56
2023-01-30T21:01:40.566Z,101321.66
2023-01-30T21:04:09.812Z,101312.09
2023-01-30T21:06:44.798Z,101318.59
2023-01-30T21:09:16.360Z,101329.16
2023-01-30T21:11:44.075Z,101321.25
2023-01-30T21:14:11.879Z,101312.09
2023-01-30T21:16:40.174Z,101322.38
2023-01-30T21:19:13.941Z,101332.78
2023-01-30T21:21:43.990Z,101335.56
2023-01-30T21:24:15.266Z,101348.84
2023-01-30T21:26:46.514Z,101344.16
2023-01-30T21:29:15.933Z,101348.31
2023-01-30T21:31:44.763Z,101357.22
2023-01-30T21:34:13.211Z,101361.75
2023-01-30T21:36:41.210Z,101364.41
2023-01-30T21:39:27.879Z,101361.19
2023-01-30T21:42:14.422Z,101365.66
2023-01-30T21:44:42.385Z,101386.03
2023-01-30T21:47:10.027Z,101381.59
2023-01-30T21:49:37.788Z,101385.19
2023-01-30T21:52:05.744Z,101391.97
2023-01-30T21:54:33.361Z,101408.88
2023-01-30T21:57:02.562Z,101404.97
2023-01-30T21:59:31.434Z,101410.50
2023-01-30T22:01:59.089Z,101408.84
2023-01-30T22:04:26.682Z,101417.00
2023-01-30T22:06:54.494Z,101418.09
2023-01-30T22:09:22.141Z,101420.47
2023-01-30T22:11:49.728Z,101423.94
2023-01-30T22:14:18.714Z,101426.56
2023-01-30T22:16:46.310Z,101422.13
2023-01-30T22:19:14.282Z,101442.25
2023-01-30T22:21:42.005Z,101437.81
2023-01-30T22:24:11.626Z,101438.09
2023-01-30T22:26:39.697Z,101437.25
2023-01-30T22:29:07.788Z,101431.03
2023-01-30T22:31:40.393Z,101431.97
2023-01-30T22:34:08.927Z,101440.00
2023-01-30T22:36:37.546Z,101453.16
2023-01-30T22:39:06.389Z,101458.31
2023-01-30T22:41:36.369Z,101452.91
2023-01-30T22:44:06.348Z,101451.00
2023-01-30T22:46:37.508Z,101446.56
2023-01-30T22:49:06.842Z,101447.00
2023-01-30T22:51:37.193Z,101447.38
2023-01-30T22:54:06.422Z,101447.94
2023-01-30T22:56:37.070Z,101440.88
2023-01-30T22:59:05.551Z,101443.94
2023-01-30T23:01:34.988Z,101440.56
2023-01-30T23:04:06.307Z,101445.47
2023-01-30T23:06:34.801Z,101442.56
2023-01-30T23:09:03.614Z,101446.03
2023-01-30T23:11:32.969Z,101441.47
2023-01-30T23:14:06.759Z,101433.41
2023-01-30T23:16:36.047Z,101435.34
2023-01-30T23:19:05.000Z,101440.63
2023-01-30T23:21:35.970Z,101449.50
2023-01-30T23:24:07.480Z,101440.06
2023-01-30T23:26:38.207Z,101441.84
2023-01-30T23:29:08.021Z,101443.78
2023-01-30T23:31:37.038Z,101444.75
2023-01-30T23:34:07.979Z,101457.09
2023-01-30T23:36:36.524Z,101456.53
2023-01-30T23:39:06.318Z,101455.81
2023-01-30T23:41:36.825Z,101455.00
2023-01-30T23:44:05.196Z,101448.72
2023-01-30T23:46:34.410Z,101450.41
2023-01-30T23:49:04.425Z,101445.25
2023-01-30T23:51:35.491Z,101427.91
2023-01-30T23:54:04.138Z,101440.53
2023-01-30T23:56:34.073Z,101437.06
2023-01-30T23:59:01.780Z,101439.97
